sensor_id;sensor_type;location;lat;lon;timestamp;P1;durP1;ratioP1;P2;durP2;ratioP2
1354;SDS011;671;48.972;9.276;2023-05-10T00:02:11;0.30;;;0.20;;
1354;SDS011;671;48.972;9.276;2023-05-10T00:04:38;0.30;;;0.30;;
1354;SDS011;671;48.972;9.276;2023-05-10T00:07:04;0.30;;;0.30;;
1354;SDS011;671;48.972;9.276;2023-05-10T00:09:30;0.30;;;0.23;;
1354;SDS011;671;48.972;9.276;2023-05-10T00:11:57;0.30;;;0.30;;
1354;SDS011;671;48.972;9.276;2023-05-10T00:14:24;0.30;;;0.30;;
1354;SDS011;671;48.972;9.276;2023-05-10T00:16:50;0.30;;;0.30;;
1354;SDS011;671;48.972;9.276;2023-05-10T00:19:17;0.30;;;0.30;;
1354;SDS011;671;48.972;9.276;2023-05-10T00:21:43;0.30;;;0.30;;
1354;SDS011;671;48.972;9.276;2023-05-10T00:24:10;0.40;;;0.30;;
1354;SDS011;671;48.972;9.276;2023-05-10T00:26:36;0.40;;;0.40;;
1354;SDS011;671;48.972;9.276;2023-05-10T00:29:03;0.30;;;0.30;;
1354;SDS011;671;48.972;9.276;2023-05-10T00:31:29;0.30;;;0.30;;
1354;SDS011;671;48.972;9.276;2023-05-10T00:33:56;0.30;;;0.30;;
1354;SDS011;671;48.972;9.276;2023-05-10T00:36:22;0.40;;;0.30;;
1354;SDS011;671;48.972;9.276;2023-05-10T00:38:48;0.30;;;0.30;;
1354;SDS011;671;48.972;9.276;2023-05-10T00:41:15;0.30;;;0.30;;
1354;SDS011;671;48.972;9.276;2023-05-10T00:43:42;0.30;;;0.30;;
1354;SDS011;671;48.972;9.276;2023-05-10T00:46:09;0.40;;;0.40;;
1354;SDS011;671;48.972;9.276;2023-05-10T00:48:35;0.30;;;0.30;;
1354;SDS011;671;48.972;9.276;2023-05-10T00:51:02;0.30;;;0.30;;
1354;SDS011;671;48.972;9.276;2023-05-10T00:53:30;0.30;;;0.30;;
1354;SDS011;671;48.972;9.276;2023-05-10T00:55:58;0.30;;;0.30;;
1354;SDS011;671;48.972;9.276;2023-05-10T00:58:25;0.30;;;0.30;;
1354;SDS011;671;48.972;9.276;2023-05-10T01:00:54;0.30;;;0.30;;
1354;SDS011;671;48.972;9.276;2023-05-10T01:03:22;0.30;;;0.30;;
1354;SDS011;671;48.972;9.276;2023-05-10T01:05:49;0.30;;;0.30;;
1354;SDS011;671;48.972;9.276;2023-05-10T01:08:16;0.40;;;0.40;;
1354;SDS011;671;48.972;9.276;2023-05-10T01:10:42;0.30;;;0.20;;
1354;SDS011;671;48.972;9.276;2023-05-10T01:13:09;0.30;;;0.20;;
1354;SDS011;671;48.972;9.276;2023-05-10T01:15:36;0.30;;;0.30;;
1354;SDS011;671;48.972;9.276;2023-05-10T01:18:04;0.30;;;0.30;;
1354;SDS011;671;48.972;9.276;2023-05-10T01:20:34;0.30;;;0.30;;
1354;SDS011;671;48.972;9.276;2023-05-10T01:23:30;0.40;;;0.40;;
1354;SDS011;671;48.972;9.276;2023-05-10T01:26:33;0.30;;;0.30;;
1354;SDS011;671;48.972;9.276;2023-05-10T01:34:44;0.40;;;0.40;;
1354;SDS011;671;48.972;9.276;2023-05-10T01:37:21;0.30;;;0.30;;
1354;SDS011;671;48.972;9.276;2023-05-10T01:40:00;0.40;;;0.33;;
1354;SDS011;671;48.972;9.276;2023-05-10T01:42:36;0.40;;;0.30;;
1354;SDS011;671;48.972;9.276;2023-05-10T01:45:21;0.40;;;0.40;;
1354;SDS011;671;48.972;9.276;2023-05-10T01:47:58;0.30;;;0.30;;
1354;SDS011;671;48.972;9.276;2023-05-10T01:50:38;0.40;;;0.40;;
1354;SDS011;671;48.972;9.276;2023-05-10T01:53:09;0.40;;;0.40;;
1354;SDS011;671;48.972;9.276;2023-05-10T01:55:44;0.40;;;0.40;;
1354;SDS011;671;48.972;9.276;2023-05-10T01:58:17;0.37;;;0.37;;
1354;SDS011;671;48.972;9.276;2023-05-10T02:00:49;0.30;;;0.30;;
1354;SDS011;671;48.972;9.276;2023-05-10T02:03:18;0.30;;;0.30;;
1354;SDS011;671;48.972;9.276;2023-05-10T02:05:48;0.30;;;0.30;;
1354;SDS011;671;48.972;9.276;2023-05-10T02:08:17;0.30;;;0.30;;
1354;SDS011;671;48.972;9.276;2023-05-10T02:10:46;0.33;;;0.33;;
1354;SDS011;671;48.972;9.276;2023-05-10T02:13:16;0.30;;;0.30;;
1354;SDS011;671;48.972;9.276;2023-05-10T02:15:43;0.30;;;0.30;;
1354;SDS011;671;48.972;9.276;2023-05-10T02:18:13;0.30;;;0.30;;
1354;SDS011;671;48.972;9.276;2023-05-10T02:20:42;0.30;;;0.30;;
1354;SDS011;671;48.972;9.276;2023-05-10T02:23:11;0.30;;;0.30;;
1354;SDS011;671;48.972;9.276;2023-05-10T02:25:39;0.40;;;0.40;;
1354;SDS011;671;48.972;9.276;2023-05-10T02:28:07;0.40;;;0.40;;
1354;SDS011;671;48.972;9.276;2023-05-10T02:30:36;0.30;;;0.30;;
1354;SDS011;671;48.972;9.276;2023-05-10T02:33:04;0.30;;;0.30;;
1354;SDS011;671;48.972;9.276;2023-05-10T02:35:31;0.30;;;0.30;;
1354;SDS011;671;48.972;9.276;2023-05-10T02:37:59;0.40;;;0.40;;
1354;SDS011;671;48.972;9.276;2023-05-10T02:40:26;0.33;;;0.33;;
1354;SDS011;671;48.972;9.276;2023-05-10T02:42:54;0.40;;;0.40;;
1354;SDS011;671;48.972;9.276;2023-05-10T02:45:23;0.37;;;0.37;;
1354;SDS011;671;48.972;9.276;2023-05-10T02:47:54;0.40;;;0.40;;
1354;SDS011;671;48.972;9.276;2023-05-10T02:50:20;0.30;;;0.30;;
1354;SDS011;671;48.972;9.276;2023-05-10T02:52:51;0.40;;;0.40;;
1354;SDS011;671;48.972;9.276;2023-05-10T02:55:19;0.50;;;0.50;;
1354;SDS011;671;48.972;9.276;2023-05-10T02:57:52;0.40;;;0.40;;
1354;SDS011;671;48.972;9.276;2023-05-10T03:00:24;0.40;;;0.30;;
1354;SDS011;671;48.972;9.276;2023-05-10T03:02:51;0.40;;;0.40;;
1354;SDS011;671;48.972;9.276;2023-05-10T03:05:18;0.40;;;0.40;;
1354;SDS011;671;48.972;9.276;2023-05-10T03:07:45;0.40;;;0.40;;
1354;SDS011;671;48.972;9.276;2023-05-10T03:10:12;0.40;;;0.40;;
1354;SDS011;671;48.972;9.276;2023-05-10T03:18:17;0.30;;;0.30;;
1354;SDS011;671;48.972;9.276;2023-05-10T03:20:41;0.37;;;0.37;;
1354;SDS011;671;48.972;9.276;2023-05-10T03:23:13;0.30;;;0.30;;
1354;SDS011;671;48.972;9.276;2023-05-10T03:25:53;0.40;;;0.40;;
1354;SDS011;671;48.972;9.276;2023-05-10T03:28:20;0.40;;;0.40;;
1354;SDS011;671;48.972;9.276;2023-05-10T03:30:47;0.40;;;0.40;;
1354;SDS011;671;48.972;9.276;2023-05-10T03:33:15;0.40;;;0.40;;
1354;SDS011;671;48.972;9.276;2023-05-10T03:35:41;0.30;;;0.30;;
1354;SDS011;671;48.972;9.276;2023-05-10T03:38:09;0.37;;;0.37;;
1354;SDS011;671;48.972;9.276;2023-05-10T03:40:36;0.37;;;0.37;;
1354;SDS011;671;48.972;9.276;2023-05-10T03:43:03;0.40;;;0.40;;
1354;SDS011;671;48.972;9.276;2023-05-10T03:45:30;0.33;;;0.33;;
1354;SDS011;671;48.972;9.276;2023-05-10T03:47:57;0.40;;;0.40;;
1354;SDS011;671;48.972;9.276;2023-05-10T03:50:24;0.40;;;0.40;;
1354;SDS011;671;48.972;9.276;2023-05-10T03:52:50;0.40;;;0.40;;
1354;SDS011;671;48.972;9.276;2023-05-10T03:55:17;0.30;;;0.30;;
1354;SDS011;671;48.972;9.276;2023-05-10T03:57:43;0.40;;;0.40;;
1354;SDS011;671;48.972;9.276;2023-05-10T04:00:10;0.33;;;0.33;;
1354;SDS011;671;48.972;9.276;2023-05-10T04:02:37;0.40;;;0.40;;
1354;SDS011;671;48.972;9.276;2023-05-10T04:05:03;0.40;;;0.40;;
1354;SDS011;671;48.972;9.276;2023-05-10T04:07:31;0.30;;;0.30;;
1354;SDS011;671;48.972;9.276;2023-05-10T04:09:58;0.40;;;0.40;;
1354;SDS011;671;48.972;9.276;2023-05-10T04:12:24;0.40;;;0.40;;
1354;SDS011;671;48.972;9.276;2023-05-10T04:14:51;0.40;;;0.40;;
1354;SDS011;671;48.972;9.276;2023-05-10T04:17:17;0.30;;;0.30;;
1354;SDS011;671;48.972;9.276;2023-05-10T04:19:44;0.40;;;0.40;;
1354;SDS011;671;48.972;9.276;2023-05-10T04:22:10;0.40;;;0.40;;
1354;SDS011;671;48.972;9.276;2023-05-10T04:24:37;0.30;;;0.30;;
1354;SDS011;671;48.972;9.276;2023-05-10T04:27:03;0.33;;;0.33;;
1354;SDS011;671;48.972;9.276;2023-05-10T04:29:30;0.40;;;0.30;;
1354;SDS011;671;48.972;9.276;2023-05-10T04:31:56;0.30;;;0.30;;
1354;SDS011;671;48.972;9.276;2023-05-10T04:34:23;0.40;;;0.40;;
1354;SDS011;671;48.972;9.276;2023-05-10T04:36:50;0.40;;;0.40;;
1354;SDS011;671;48.972;9.276;2023-05-10T04:39:16;0.40;;;0.40;;
1354;SDS011;671;48.972;9.276;2023-05-10T04:41:43;0.30;;;0.30;;
1354;SDS011;671;48.972;9.276;2023-05-10T04:44:09;0.40;;;0.40;;
1354;SDS011;671;48.972;9.276;2023-05-10T04:46:36;0.37;;;0.37;;
1354;SDS011;671;48.972;9.276;2023-05-10T04:49:02;0.40;;;0.40;;
1354;SDS011;671;48.972;9.276;2023-05-10T04:51:29;0.30;;;0.30;;
1354;SDS011;671;48.972;9.276;2023-05-10T04:53:56;0.30;;;0.30;;
1354;SDS011;671;48.972;9.276;2023-05-10T04:56:22;0.40;;;0.40;;
1354;SDS011;671;48.972;9.276;2023-05-10T04:58:49;0.40;;;0.40;;
1354;SDS011;671;48.972;9.276;2023-05-10T05:01:16;0.30;;;0.30;;
1354;SDS011;671;48.972;9.276;2023-05-10T05:03:42;0.40;;;0.40;;
1354;SDS011;671;48.972;9.276;2023-05-10T05:06:08;0.37;;;0.37;;
1354;SDS011;671;48.972;9.276;2023-05-10T05:08:35;0.30;;;0.30;;
1354;SDS011;671;48.972;9.276;2023-05-10T05:11:02;0.30;;;0.30;;
1354;SDS011;671;48.972;9.276;2023-05-10T05:13:28;0.40;;;0.40;;
1354;SDS011;671;48.972;9.276;2023-05-10T05:15:55;0.30;;;0.30;;
1354;SDS011;671;48.972;9.276;2023-05-10T05:18:21;0.30;;;0.30;;
1354;SDS011;671;48.972;9.276;2023-05-10T05:20:48;0.40;;;0.40;;
1354;SDS011;671;48.972;9.276;2023-05-10T05:23:14;0.30;;;0.30;;
1354;SDS011;671;48.972;9.276;2023-05-10T05:25:41;0.37;;;0.37;;
1354;SDS011;671;48.972;9.276;2023-05-10T05:28:08;0.30;;;0.30;;
1354;SDS011;671;48.972;9.276;2023-05-10T05:30:34;0.30;;;0.30;;
1354;SDS011;671;48.972;9.276;2023-05-10T05:33:01;0.40;;;0.40;;
1354;SDS011;671;48.972;9.276;2023-05-10T05:35:27;0.40;;;0.40;;
1354;SDS011;671;48.972;9.276;2023-05-10T05:37:54;0.30;;;0.20;;
1354;SDS011;671;48.972;9.276;2023-05-10T05:40:21;0.30;;;0.23;;
1354;SDS011;671;48.972;9.276;2023-05-10T05:42:48;0.30;;;0.27;;
1354;SDS011;671;48.972;9.276;2023-05-10T05:45:15;0.30;;;0.30;;
1354;SDS011;671;48.972;9.276;2023-05-10T05:47:41;0.30;;;0.30;;
1354;SDS011;671;48.972;9.276;2023-05-10T05:50:08;0.30;;;0.30;;
1354;SDS011;671;48.972;9.276;2023-05-10T05:52:35;0.30;;;0.30;;
1354;SDS011;671;48.972;9.276;2023-05-10T05:55:02;0.33;;;0.33;;
1354;SDS011;671;48.972;9.276;2023-05-10T05:57:28;0.30;;;0.30;;
1354;SDS011;671;48.972;9.276;2023-05-10T05:59:55;0.30;;;0.30;;
1354;SDS011;671;48.972;9.276;2023-05-10T06:02:21;0.30;;;0.30;;
1354;SDS011;671;48.972;9.276;2023-05-10T06:04:48;0.30;;;0.30;;
1354;SDS011;671;48.972;9.276;2023-05-10T06:07:14;0.30;;;0.30;;
1354;SDS011;671;48.972;9.276;2023-05-10T06:09:41;0.30;;;0.30;;
1354;SDS011;671;48.972;9.276;2023-05-10T06:12:07;0.30;;;0.30;;
1354;SDS011;671;48.972;9.276;2023-05-10T06:14:34;0.30;;;0.30;;
1354;SDS011;671;48.972;9.276;2023-05-10T06:17:00;0.30;;;0.30;;
1354;SDS011;671;48.972;9.276;2023-05-10T06:19:29;0.30;;;0.30;;
1354;SDS011;671;48.972;9.276;2023-05-10T06:21:56;0.30;;;0.30;;
1354;SDS011;671;48.972;9.276;2023-05-10T06:24:23;0.30;;;0.20;;
1354;SDS011;671;48.972;9.276;2023-05-10T06:26:49;0.30;;;0.20;;
1354;SDS011;671;48.972;9.276;2023-05-10T06:29:16;0.30;;;0.20;;
1354;SDS011;671;48.972;9.276;2023-05-10T06:31:43;0.30;;;0.30;;
1354;SDS011;671;48.972;9.276;2023-05-10T06:34:09;0.30;;;0.30;;
1354;SDS011;671;48.972;9.276;2023-05-10T06:36:37;0.30;;;0.30;;
1354;SDS011;671;48.972;9.276;2023-05-10T06:39:04;0.30;;;0.30;;
1354;SDS011;671;48.972;9.276;2023-05-10T06:41:30;0.30;;;0.30;;
1354;SDS011;671;48.972;9.276;2023-05-10T06:43:56;0.30;;;0.30;;
1354;SDS011;671;48.972;9.276;2023-05-10T06:46:23;0.40;;;0.40;;
1354;SDS011;671;48.972;9.276;2023-05-10T06:48:50;0.30;;;0.30;;
1354;SDS011;671;48.972;9.276;2023-05-10T06:51:16;0.30;;;0.30;;
1354;SDS011;671;48.972;9.276;2023-05-10T06:53:43;0.30;;;0.30;;
1354;SDS011;671;48.972;9.276;2023-05-10T06:56:09;0.30;;;0.30;;
1354;SDS011;671;48.972;9.276;2023-05-10T06:58:36;0.30;;;0.30;;
1354;SDS011;671;48.972;9.276;2023-05-10T07:01:03;0.30;;;0.30;;
1354;SDS011;671;48.972;9.276;2023-05-10T07:03:31;0.30;;;0.30;;
1354;SDS011;671;48.972;9.276;2023-05-10T07:06:01;0.30;;;0.30;;
1354;SDS011;671;48.972;9.276;2023-05-10T07:08:35;0.30;;;0.20;;
1354;SDS011;671;48.972;9.276;2023-05-10T07:11:02;0.30;;;0.20;;
1354;SDS011;671;48.972;9.276;2023-05-10T07:13:33;0.30;;;0.30;;
1354;SDS011;671;48.972;9.276;2023-05-10T07:16:00;0.30;;;0.20;;
1354;SDS011;671;48.972;9.276;2023-05-10T07:18:27;0.30;;;0.30;;
1354;SDS011;671;48.972;9.276;2023-05-10T07:20:54;0.30;;;0.30;;
1354;SDS011;671;48.972;9.276;2023-05-10T07:23:22;0.30;;;0.30;;
1354;SDS011;671;48.972;9.276;2023-05-10T07:25:49;0.30;;;0.30;;
1354;SDS011;671;48.972;9.276;2023-05-10T07:28:18;0.30;;;0.20;;
1354;SDS011;671;48.972;9.276;2023-05-10T07:30:44;0.30;;;0.30;;
1354;SDS011;671;48.972;9.276;2023-05-10T07:33:12;0.30;;;0.30;;
1354;SDS011;671;48.972;9.276;2023-05-10T07:35:39;0.30;;;0.30;;
1354;SDS011;671;48.972;9.276;2023-05-10T07:38:06;0.30;;;0.30;;
1354;SDS011;671;48.972;9.276;2023-05-10T07:40:31;0.30;;;0.30;;
1354;SDS011;671;48.972;9.276;2023-05-10T07:42:57;0.30;;;0.30;;
1354;SDS011;671;48.972;9.276;2023-05-10T07:45:24;0.30;;;0.30;;
1354;SDS011;671;48.972;9.276;2023-05-10T07:47:50;0.30;;;0.20;;
1354;SDS011;671;48.972;9.276;2023-05-10T07:50:17;0.30;;;0.30;;
1354;SDS011;671;48.972;9.276;2023-05-10T07:52:43;0.30;;;0.30;;
1354;SDS011;671;48.972;9.276;2023-05-10T07:55:10;0.30;;;0.23;;
1354;SDS011;671;48.972;9.276;2023-05-10T07:57:37;0.30;;;0.30;;
1354;SDS011;671;48.972;9.276;2023-05-10T08:00:04;0.30;;;0.30;;
1354;SDS011;671;48.972;9.276;2023-05-10T08:02:31;0.30;;;0.23;;
1354;SDS011;671;48.972;9.276;2023-05-10T08:04:59;0.30;;;0.20;;
1354;SDS011;671;48.972;9.276;2023-05-10T08:07:26;0.30;;;0.20;;
1354;SDS011;671;48.972;9.276;2023-05-10T08:09:52;0.30;;;0.20;;
1354;SDS011;671;48.972;9.276;2023-05-10T08:12:19;0.30;;;0.30;;
1354;SDS011;671;48.972;9.276;2023-05-10T08:14:45;0.30;;;0.20;;
1354;SDS011;671;48.972;9.276;2023-05-10T08:17:12;0.30;;;0.20;;
1354;SDS011;671;48.972;9.276;2023-05-10T08:19:38;0.30;;;0.20;;
1354;SDS011;671;48.972;9.276;2023-05-10T08:22:05;0.30;;;0.20;;
1354;SDS011;671;48.972;9.276;2023-05-10T08:24:32;0.30;;;0.30;;
1354;SDS011;671;48.972;9.276;2023-05-10T08:27:00;0.30;;;0.20;;
1354;SDS011;671;48.972;9.276;2023-05-10T08:29:27;0.30;;;0.20;;
1354;SDS011;671;48.972;9.276;2023-05-10T08:31:53;0.30;;;0.20;;
1354;SDS011;671;48.972;9.276;2023-05-10T08:34:20;0.30;;;0.20;;
1354;SDS011;671;48.972;9.276;2023-05-10T08:36:47;0.30;;;0.20;;
1354;SDS011;671;48.972;9.276;2023-05-10T08:39:13;0.30;;;0.20;;
1354;SDS011;671;48.972;9.276;2023-05-10T08:41:40;0.30;;;0.20;;
1354;SDS011;671;48.972;9.276;2023-05-10T08:44:12;0.30;;;0.20;;
1354;SDS011;671;48.972;9.276;2023-05-10T08:46:39;0.30;;;0.20;;
1354;SDS011;671;48.972;9.276;2023-05-10T08:49:09;0.30;;;0.20;;
1354;SDS011;671;48.972;9.276;2023-05-10T08:51:40;0.30;;;0.20;;
1354;SDS011;671;48.972;9.276;2023-05-10T08:54:09;0.30;;;0.20;;
1354;SDS011;671;48.972;9.276;2023-05-10T08:56:36;0.30;;;0.10;;
1354;SDS011;671;48.972;9.276;2023-05-10T08:59:03;0.30;;;0.20;;
1354;SDS011;671;48.972;9.276;2023-05-10T09:01:29;0.30;;;0.20;;
1354;SDS011;671;48.972;9.276;2023-05-10T09:03:57;0.30;;;0.20;;
1354;SDS011;671;48.972;9.276;2023-05-10T09:06:24;0.30;;;0.20;;
1354;SDS011;671;48.972;9.276;2023-05-10T09:08:51;0.30;;;0.20;;
1354;SDS011;671;48.972;9.276;2023-05-10T09:11:18;0.30;;;0.20;;
1354;SDS011;671;48.972;9.276;2023-05-10T09:13:47;0.30;;;0.20;;
1354;SDS011;671;48.972;9.276;2023-05-10T09:16:16;0.30;;;0.20;;
1354;SDS011;671;48.972;9.276;2023-05-10T09:18:43;0.30;;;0.20;;
1354;SDS011;671;48.972;9.276;2023-05-10T09:21:09;0.30;;;0.20;;
1354;SDS011;671;48.972;9.276;2023-05-10T09:23:36;0.30;;;0.20;;
1354;SDS011;671;48.972;9.276;2023-05-10T09:26:06;0.30;;;0.20;;
1354;SDS011;671;48.972;9.276;2023-05-10T09:28:55;0.30;;;0.20;;
1354;SDS011;671;48.972;9.276;2023-05-10T09:31:23;0.30;;;0.20;;
1354;SDS011;671;48.972;9.276;2023-05-10T09:33:53;0.30;;;0.20;;
1354;SDS011;671;48.972;9.276;2023-05-10T09:36:19;0.30;;;0.30;;
1354;SDS011;671;48.972;9.276;2023-05-10T09:41:23;0.30;;;0.20;;
1354;SDS011;671;48.972;9.276;2023-05-10T09:43:55;0.30;;;0.27;;
1354;SDS011;671;48.972;9.276;2023-05-10T09:46:22;0.30;;;0.20;;
1354;SDS011;671;48.972;9.276;2023-05-10T09:48:48;0.30;;;0.30;;
1354;SDS011;671;48.972;9.276;2023-05-10T09:51:18;0.30;;;0.20;;
1354;SDS011;671;48.972;9.276;2023-05-10T09:53:46;0.30;;;0.20;;
1354;SDS011;671;48.972;9.276;2023-05-10T09:56:12;0.30;;;0.20;;
1354;SDS011;671;48.972;9.276;2023-05-10T09:58:40;0.30;;;0.20;;
1354;SDS011;671;48.972;9.276;2023-05-10T10:01:10;0.30;;;0.20;;
1354;SDS011;671;48.972;9.276;2023-05-10T10:03:41;0.30;;;0.20;;
1354;SDS011;671;48.972;9.276;2023-05-10T10:06:08;0.30;;;0.20;;
1354;SDS011;671;48.972;9.276;2023-05-10T10:08:34;0.30;;;0.20;;
1354;SDS011;671;48.972;9.276;2023-05-10T10:11:01;0.30;;;0.20;;
1354;SDS011;671;48.972;9.276;2023-05-10T10:13:28;0.30;;;0.20;;
1354;SDS011;671;48.972;9.276;2023-05-10T10:15:55;0.30;;;0.20;;
1354;SDS011;671;48.972;9.276;2023-05-10T10:18:22;0.30;;;0.20;;
1354;SDS011;671;48.972;9.276;2023-05-10T10:20:53;0.30;;;0.20;;
1354;SDS011;671;48.972;9.276;2023-05-10T10:23:20;0.30;;;0.20;;
1354;SDS011;671;48.972;9.276;2023-05-10T10:25:47;0.30;;;0.20;;
1354;SDS011;671;48.972;9.276;2023-05-10T10:28:21;0.30;;;0.20;;
1354;SDS011;671;48.972;9.276;2023-05-10T10:30:50;0.30;;;0.20;;
1354;SDS011;671;48.972;9.276;2023-05-10T10:33:30;0.30;;;0.20;;
1354;SDS011;671;48.972;9.276;2023-05-10T10:36:04;0.30;;;0.20;;
1354;SDS011;671;48.972;9.276;2023-05-10T10:38:54;0.30;;;0.20;;
1354;SDS011;671;48.972;9.276;2023-05-10T10:49:27;0.30;;;0.20;;
1354;SDS011;671;48.972;9.276;2023-05-10T10:57:35;0.30;;;0.30;;
1354;SDS011;671;48.972;9.276;2023-05-10T11:02:53;0.30;;;0.20;;
1354;SDS011;671;48.972;9.276;2023-05-10T11:13:32;0.30;;;0.20;;
1354;SDS011;671;48.972;9.276;2023-05-10T11:18:36;0.30;;;0.20;;
1354;SDS011;671;48.972;9.276;2023-05-10T11:21:03;0.30;;;0.20;;
1354;SDS011;671;48.972;9.276;2023-05-10T11:23:47;0.30;;;0.20;;
1354;SDS011;671;48.972;9.276;2023-05-10T11:26:13;0.30;;;0.20;;
1354;SDS011;671;48.972;9.276;2023-05-10T11:28:44;0.30;;;0.20;;
1354;SDS011;671;48.972;9.276;2023-05-10T11:31:16;0.30;;;0.20;;
1354;SDS011;671;48.972;9.276;2023-05-10T11:33:44;0.30;;;0.23;;
1354;SDS011;671;48.972;9.276;2023-05-10T11:36:14;0.30;;;0.30;;
1354;SDS011;671;48.972;9.276;2023-05-10T11:38:42;0.30;;;0.30;;
1354;SDS011;671;48.972;9.276;2023-05-10T11:41:09;0.30;;;0.23;;
1354;SDS011;671;48.972;9.276;2023-05-10T11:43:40;0.30;;;0.30;;
1354;SDS011;671;48.972;9.276;2023-05-10T11:46:09;0.30;;;0.20;;
1354;SDS011;671;48.972;9.276;2023-05-10T11:48:40;0.30;;;0.20;;
1354;SDS011;671;48.972;9.276;2023-05-10T11:51:07;0.30;;;0.20;;
1354;SDS011;671;48.972;9.276;2023-05-10T11:53:34;0.30;;;0.20;;
1354;SDS011;671;48.972;9.276;2023-05-10T11:56:10;0.30;;;0.20;;
1354;SDS011;671;48.972;9.276;2023-05-10T11:58:37;0.30;;;0.20;;
1354;SDS011;671;48.972;9.276;2023-05-10T12:01:05;0.30;;;0.20;;
1354;SDS011;671;48.972;9.276;2023-05-10T12:03:33;0.30;;;0.20;;
1354;SDS011;671;48.972;9.276;2023-05-10T12:06:01;0.30;;;0.20;;
1354;SDS011;671;48.972;9.276;2023-05-10T12:08:28;0.30;;;0.20;;
1354;SDS011;671;48.972;9.276;2023-05-10T12:11:05;0.30;;;0.20;;
1354;SDS011;671;48.972;9.276;2023-05-10T12:13:40;0.30;;;0.20;;
1354;SDS011;671;48.972;9.276;2023-05-10T12:16:14;0.30;;;0.20;;
1354;SDS011;671;48.972;9.276;2023-05-10T12:18:50;0.30;;;0.20;;
1354;SDS011;671;48.972;9.276;2023-05-10T12:21:18;0.30;;;0.20;;
1354;SDS011;671;48.972;9.276;2023-05-10T12:23:46;0.30;;;0.20;;
1354;SDS011;671;48.972;9.276;2023-05-10T12:26:15;0.30;;;0.20;;
1354;SDS011;671;48.972;9.276;2023-05-10T12:28:42;0.30;;;0.23;;
1354;SDS011;671;48.972;9.276;2023-05-10T12:31:09;0.30;;;0.20;;
1354;SDS011;671;48.972;9.276;2023-05-10T12:33:37;0.30;;;0.20;;
1354;SDS011;671;48.972;9.276;2023-05-10T12:36:05;0.30;;;0.20;;
1354;SDS011;671;48.972;9.276;2023-05-10T12:38:36;0.30;;;0.20;;
1354;SDS011;671;48.972;9.276;2023-05-10T12:41:09;0.30;;;0.20;;
1354;SDS011;671;48.972;9.276;2023-05-10T12:43:37;0.30;;;0.20;;
1354;SDS011;671;48.972;9.276;2023-05-10T12:46:05;0.30;;;0.20;;
1354;SDS011;671;48.972;9.276;2023-05-10T12:48:32;0.30;;;0.20;;
1354;SDS011;671;48.972;9.276;2023-05-10T12:51:00;0.30;;;0.20;;
1354;SDS011;671;48.972;9.276;2023-05-10T12:53:27;0.30;;;0.20;;
1354;SDS011;671;48.972;9.276;2023-05-10T12:55:54;0.30;;;0.20;;
1354;SDS011;671;48.972;9.276;2023-05-10T12:58:20;0.30;;;0.20;;
1354;SDS011;671;48.972;9.276;2023-05-10T13:00:47;0.30;;;0.20;;
1354;SDS011;671;48.972;9.276;2023-05-10T13:03:13;0.30;;;0.20;;
1354;SDS011;671;48.972;9.276;2023-05-10T13:05:41;0.30;;;0.20;;
1354;SDS011;671;48.972;9.276;2023-05-10T13:08:08;0.30;;;0.20;;
1354;SDS011;671;48.972;9.276;2023-05-10T13:10:34;0.30;;;0.20;;
1354;SDS011;671;48.972;9.276;2023-05-10T13:13:01;0.30;;;0.20;;
1354;SDS011;671;48.972;9.276;2023-05-10T13:15:28;0.30;;;0.20;;
1354;SDS011;671;48.972;9.276;2023-05-10T13:17:55;0.30;;;0.20;;
1354;SDS011;671;48.972;9.276;2023-05-10T13:20:21;0.30;;;0.20;;
1354;SDS011;671;48.972;9.276;2023-05-10T13:22:48;0.30;;;0.20;;
1354;SDS011;671;48.972;9.276;2023-05-10T13:25:14;0.30;;;0.20;;
1354;SDS011;671;48.972;9.276;2023-05-10T13:27:41;0.30;;;0.20;;
1354;SDS011;671;48.972;9.276;2023-05-10T13:30:08;0.30;;;0.20;;
1354;SDS011;671;48.972;9.276;2023-05-10T13:32:35;0.30;;;0.20;;
1354;SDS011;671;48.972;9.276;2023-05-10T13:35:02;0.30;;;0.20;;
1354;SDS011;671;48.972;9.276;2023-05-10T13:37:32;0.30;;;0.20;;
1354;SDS011;671;48.972;9.276;2023-05-10T13:40:01;0.30;;;0.20;;
1354;SDS011;671;48.972;9.276;2023-05-10T13:42:27;0.30;;;0.20;;
1354;SDS011;671;48.972;9.276;2023-05-10T13:44:54;0.30;;;0.20;;
1354;SDS011;671;48.972;9.276;2023-05-10T13:47:20;0.30;;;0.20;;
1354;SDS011;671;48.972;9.276;2023-05-10T13:49:48;0.30;;;0.20;;
1354;SDS011;671;48.972;9.276;2023-05-10T13:52:14;0.30;;;0.20;;
1354;SDS011;671;48.972;9.276;2023-05-10T13:54:41;0.30;;;0.20;;
1354;SDS011;671;48.972;9.276;2023-05-10T13:57:07;0.30;;;0.20;;
1354;SDS011;671;48.972;9.276;2023-05-10T13:59:34;0.30;;;0.20;;
1354;SDS011;671;48.972;9.276;2023-05-10T14:02:00;0.30;;;0.17;;
1354;SDS011;671;48.972;9.276;2023-05-10T14:04:30;0.30;;;0.20;;
1354;SDS011;671;48.972;9.276;2023-05-10T14:06:57;0.30;;;0.20;;
1354;SDS011;671;48.972;9.276;2023-05-10T14:09:23;0.30;;;0.20;;
1354;SDS011;671;48.972;9.276;2023-05-10T14:11:50;0.30;;;0.20;;
1354;SDS011;671;48.972;9.276;2023-05-10T14:14:17;0.30;;;0.20;;
1354;SDS011;671;48.972;9.276;2023-05-10T14:16:44;0.30;;;0.20;;
1354;SDS011;671;48.972;9.276;2023-05-10T14:19:10;0.30;;;0.20;;
1354;SDS011;671;48.972;9.276;2023-05-10T14:21:37;0.30;;;0.20;;
1354;SDS011;671;48.972;9.276;2023-05-10T14:24:04;0.30;;;0.20;;
1354;SDS011;671;48.972;9.276;2023-05-10T14:26:32;0.30;;;0.20;;
1354;SDS011;671;48.972;9.276;2023-05-10T14:29:00;0.30;;;0.20;;
1354;SDS011;671;48.972;9.276;2023-05-10T14:31:26;0.30;;;0.20;;
1354;SDS011;671;48.972;9.276;2023-05-10T14:33:53;0.30;;;0.20;;
1354;SDS011;671;48.972;9.276;2023-05-10T14:36:20;0.30;;;0.20;;
1354;SDS011;671;48.972;9.276;2023-05-10T14:38:46;0.30;;;0.20;;
1354;SDS011;671;48.972;9.276;2023-05-10T14:41:12;0.30;;;0.20;;
1354;SDS011;671;48.972;9.276;2023-05-10T14:43:43;0.30;;;0.20;;
1354;SDS011;671;48.972;9.276;2023-05-10T14:46:09;0.30;;;0.20;;
1354;SDS011;671;48.972;9.276;2023-05-10T14:48:36;0.30;;;0.20;;
1354;SDS011;671;48.972;9.276;2023-05-10T14:51:05;0.30;;;0.20;;
1354;SDS011;671;48.972;9.276;2023-05-10T14:53:32;0.30;;;0.20;;
1354;SDS011;671;48.972;9.276;2023-05-10T14:55:59;0.30;;;0.20;;
1354;SDS011;671;48.972;9.276;2023-05-10T14:58:27;0.30;;;0.20;;
1354;SDS011;671;48.972;9.276;2023-05-10T15:00:53;0.30;;;0.20;;
1354;SDS011;671;48.972;9.276;2023-05-10T15:03:20;0.30;;;0.20;;
1354;SDS011;671;48.972;9.276;2023-05-10T15:05:47;0.30;;;0.20;;
1354;SDS011;671;48.972;9.276;2023-05-10T15:08:13;0.30;;;0.20;;
1354;SDS011;671;48.972;9.276;2023-05-10T15:10:40;0.30;;;0.20;;
1354;SDS011;671;48.972;9.276;2023-05-10T15:13:06;0.30;;;0.20;;
1354;SDS011;671;48.972;9.276;2023-05-10T15:15:33;0.30;;;0.20;;
1354;SDS011;671;48.972;9.276;2023-05-10T15:17:59;0.30;;;0.20;;
1354;SDS011;671;48.972;9.276;2023-05-10T15:20:26;0.30;;;0.20;;
1354;SDS011;671;48.972;9.276;2023-05-10T15:22:52;0.30;;;0.20;;
1354;SDS011;671;48.972;9.276;2023-05-10T15:25:19;0.30;;;0.20;;
1354;SDS011;671;48.972;9.276;2023-05-10T15:27:46;0.30;;;0.20;;
1354;SDS011;671;48.972;9.276;2023-05-10T15:30:12;0.30;;;0.20;;
1354;SDS011;671;48.972;9.276;2023-05-10T15:32:39;0.30;;;0.20;;
1354;SDS011;671;48.972;9.276;2023-05-10T15:35:07;0.30;;;0.20;;
1354;SDS011;671;48.972;9.276;2023-05-10T15:37:35;0.30;;;0.20;;
1354;SDS011;671;48.972;9.276;2023-05-10T15:40:02;0.30;;;0.20;;
1354;SDS011;671;48.972;9.276;2023-05-10T15:42:29;0.30;;;0.20;;
1354;SDS011;671;48.972;9.276;2023-05-10T15:44:57;0.30;;;0.20;;
1354;SDS011;671;48.972;9.276;2023-05-10T15:47:25;0.30;;;0.20;;
1354;SDS011;671;48.972;9.276;2023-05-10T15:49:52;0.30;;;0.20;;
1354;SDS011;671;48.972;9.276;2023-05-10T15:52:19;0.30;;;0.20;;
1354;SDS011;671;48.972;9.276;2023-05-10T15:54:46;0.30;;;0.20;;
1354;SDS011;671;48.972;9.276;2023-05-10T15:57:12;0.30;;;0.20;;
1354;SDS011;671;48.972;9.276;2023-05-10T15:59:39;0.30;;;0.20;;
1354;SDS011;671;48.972;9.276;2023-05-10T16:02:06;0.30;;;0.20;;
1354;SDS011;671;48.972;9.276;2023-05-10T16:04:34;0.30;;;0.20;;
1354;SDS011;671;48.972;9.276;2023-05-10T16:07:00;0.30;;;0.20;;
1354;SDS011;671;48.972;9.276;2023-05-10T16:09:27;0.30;;;0.20;;
1354;SDS011;671;48.972;9.276;2023-05-10T16:11:53;0.30;;;0.20;;
1354;SDS011;671;48.972;9.276;2023-05-10T16:14:20;0.30;;;0.20;;
1354;SDS011;671;48.972;9.276;2023-05-10T16:16:47;0.30;;;0.20;;